createdAt,value
2019-05-20T00:01:39.872Z,3.12
2019-05-20T00:04:11.253Z,2.80
2019-05-20T00:06:43.619Z,2.80
2019-05-20T00:09:15.091Z,3.33
2019-05-20T00:11:48.054Z,2.90
2019-05-20T00:14:21.584Z,2.67
2019-05-20T00:16:52.997Z,3.05
2019-05-20T00:19:24.610Z,2.60
2019-05-20T00:21:56.009Z,3.10
2019-05-20T00:24:28.773Z,3.35
2019-05-20T00:27:00.680Z,2.83
2019-05-20T00:29:32.167Z,2.85
2019-05-20T00:32:03.647Z,2.80
2019-05-20T00:34:35.811Z,2.75
2019-05-20T00:37:09.232Z,2.70
2019-05-20T00:39:40.635Z,2.80
2019-05-20T00:42:14.132Z,2.58
2019-05-20T00:44:45.601Z,2.60
2019-05-20T00:47:17.042Z,2.98
2019-05-20T00:49:48.454Z,2.58
2019-05-20T00:52:21.040Z,2.85
2019-05-20T00:54:52.431Z,2.85
2019-05-20T00:57:25.683Z,2.80
2019-05-20T00:59:57.692Z,2.65
2019-05-20T01:02:29.131Z,2.70
2019-05-20T01:05:00.529Z,2.90
2019-05-20T01:07:32.071Z,2.47
2019-05-20T01:10:04.480Z,2.92
2019-05-20T01:12:35.919Z,3.00
2019-05-20T01:15:10.666Z,2.70
2019-05-20T01:17:42.064Z,2.70
2019-05-20T01:20:14.474Z,2.70
2019-05-20T01:22:47.532Z,2.77
2019-05-20T01:25:19.994Z,2.75
2019-05-20T01:27:53.537Z,2.87
2019-05-20T01:30:25.525Z,2.80
2019-05-20T01:33:12.777Z,3.20
2019-05-20T01:35:32.053Z,3.05
2019-05-20T01:38:03.499Z,3.10
2019-05-20T01:40:34.915Z,3.25
2019-05-20T01:43:06.422Z,3.15
2019-05-20T01:45:38.877Z,3.08
2019-05-20T01:48:10.330Z,3.12
2019-05-20T01:50:43.063Z,2.95
2019-05-20T01:53:15.468Z,2.90
2019-05-20T01:55:46.784Z,3.10
2019-05-20T01:58:20.354Z,2.90
2019-05-20T02:00:51.818Z,2.87
2019-05-20T02:03:31.537Z,2.92
2019-05-20T02:05:59.815Z,2.92
2019-05-20T02:08:31.223Z,3.02
2019-05-20T02:11:02.699Z,3.02
2019-05-20T02:13:52.147Z,3.37
2019-05-20T02:16:25.158Z,2.50
2019-05-20T02:18:57.596Z,3.08
2019-05-20T02:21:30.017Z,2.62
2019-05-20T02:24:04.764Z,3.20
2019-05-20T02:29:07.128Z,3.20
2019-05-20T02:31:38.552Z,4.10
2019-05-20T02:34:10.041Z,3.15
2019-05-20T02:36:41.459Z,3.52
2019-05-20T02:39:12.857Z,3.55
2019-05-20T02:41:44.438Z,3.20
2019-05-20T02:44:15.883Z,3.72
2019-05-20T02:46:47.580Z,3.90
2019-05-20T02:49:19.016Z,3.87
2019-05-20T02:51:50.554Z,3.95
2019-05-20T02:54:22.051Z,3.95
2019-05-20T02:56:53.444Z,3.67
2019-05-20T02:59:24.940Z,3.45
2019-05-20T03:01:56.486Z,3.85
2019-05-20T03:04:29.111Z,3.87
2019-05-20T03:07:01.617Z,3.35
2019-05-20T03:09:34.025Z,3.50
2019-05-20T03:12:05.468Z,3.20
2019-05-20T03:14:38.938Z,3.72
2019-05-20T03:17:12.365Z,2.92
2019-05-20T03:19:43.758Z,3.87
2019-05-20T03:22:15.204Z,3.30
2019-05-20T03:24:46.659Z,3.52
2019-05-20T03:27:18.120Z,3.72
2019-05-20T03:29:49.513Z,4.10
2019-05-20T03:32:21.003Z,3.10
2019-05-20T03:34:59.276Z,3.72
2019-05-20T03:37:26.371Z,3.40
2019-05-20T03:39:57.723Z,3.02
2019-05-20T03:42:29.215Z,3.40
2019-05-20T03:45:00.635Z,3.55
2019-05-20T03:47:32.032Z,3.30
2019-05-20T03:50:08.565Z,2.77
2019-05-20T03:52:42.011Z,3.52
2019-05-20T03:55:13.654Z,3.17
2019-05-20T03:57:45.103Z,3.40
2019-05-20T04:00:18.067Z,3.30
2019-05-20T04:02:49.498Z,3.70
2019-05-20T04:05:20.959Z,3.37
2019-05-20T04:07:53.362Z,3.80
2019-05-20T04:10:24.806Z,3.83
2019-05-20T04:12:56.261Z,3.87
2019-05-20T04:15:27.720Z,4.12
2019-05-20T04:17:59.243Z,3.83
2019-05-20T04:20:30.770Z,3.22
2019-05-20T04:23:02.319Z,3.67
2019-05-20T04:25:33.882Z,3.25
2019-05-20T04:28:05.481Z,3.27
2019-05-20T04:30:36.968Z,3.77
2019-05-20T04:33:08.527Z,3.75
2019-05-20T04:35:39.919Z,3.95
2019-05-20T04:38:11.557Z,3.77
2019-05-20T04:40:44.499Z,3.85
2019-05-20T04:43:15.904Z,4.30
2019-05-20T04:45:48.467Z,3.37
2019-05-20T04:48:20.374Z,4.87
2019-05-20T04:50:51.976Z,4.40
2019-05-20T04:53:23.543Z,4.33
2019-05-20T04:55:54.950Z,4.08
2019-05-20T04:58:26.454Z,4.20
2019-05-20T05:00:58.643Z,4.55
2019-05-20T05:03:30.152Z,4.00
2019-05-20T05:06:01.499Z,3.67
2019-05-20T05:08:33.033Z,4.10
2019-05-20T05:11:04.529Z,4.22
2019-05-20T05:13:35.949Z,3.92
2019-05-20T05:16:07.580Z,4.00
2019-05-20T05:18:40.150Z,4.47
2019-05-20T05:21:11.698Z,3.92
2019-05-20T05:23:58.355Z,3.77
2019-05-20T05:28:50.521Z,3.60
2019-05-20T05:31:21.987Z,4.17
2019-05-20T05:33:54.427Z,4.28
2019-05-20T05:36:28.039Z,3.92
2019-05-20T05:41:34.908Z,3.67
2019-05-20T05:44:06.529Z,3.58
2019-05-20T05:46:38.096Z,4.15
2019-05-20T05:51:41.243Z,3.52
2019-05-20T05:54:12.713Z,3.45
2019-05-20T05:56:44.138Z,3.50
2019-05-20T05:59:16.275Z,3.42
2019-05-20T06:01:47.787Z,3.42
2019-05-20T06:04:20.255Z,3.60
2019-05-20T06:06:53.714Z,3.40
2019-05-20T06:09:25.618Z,3.70
2019-05-20T06:12:04.870Z,3.30
2019-05-20T06:14:37.590Z,3.80
2019-05-20T06:17:09.105Z,3.67
2019-05-20T06:19:40.738Z,3.52
2019-05-20T06:22:14.754Z,3.83
2019-05-20T06:27:16.901Z,3.95
2019-05-20T06:29:50.532Z,3.75
2019-05-20T06:32:22.956Z,3.80
2019-05-20T06:34:55.447Z,3.58
2019-05-20T06:37:40.904Z,3.15
2019-05-20T06:40:12.574Z,3.50
2019-05-20T06:42:46.613Z,3.80
2019-05-20T06:45:18.581Z,3.60
2019-05-20T06:47:51.195Z,3.60
2019-05-20T06:50:22.865Z,3.40
2019-05-20T06:52:55.577Z,4.10
2019-05-20T06:55:29.817Z,4.22
2019-05-20T06:58:02.384Z,4.37
2019-05-20T07:00:38.447Z,4.60
2019-05-20T07:03:11.117Z,4.92
2019-05-20T07:05:44.705Z,3.85
2019-05-20T07:08:23.236Z,3.72
2019-05-20T07:10:59.048Z,3.92
2019-05-20T07:13:34.250Z,4.28
2019-05-20T07:16:10.671Z,3.60
2019-05-20T07:18:49.749Z,4.35
2019-05-20T07:21:25.983Z,4.85
2019-05-20T07:24:06.978Z,3.50
2019-05-20T07:26:43.199Z,3.58
2019-05-20T07:29:20.684Z,3.40
2019-05-20T07:31:55.455Z,3.50
2019-05-20T07:34:36.959Z,3.17
2019-05-20T07:37:17.427Z,3.15
2019-05-20T07:39:58.165Z,3.58
2019-05-20T07:42:39.111Z,3.20
2019-05-20T07:45:15.965Z,3.08
2019-05-20T07:47:50.257Z,3.15
2019-05-20T07:50:29.964Z,3.12
2019-05-20T07:53:14.132Z,3.40
2019-05-20T07:56:02.961Z,2.80
2019-05-20T07:58:46.976Z,3.08
2019-05-20T08:01:27.760Z,3.00
2019-05-20T08:04:11.711Z,3.00
2019-05-20T08:06:44.443Z,2.90
2019-05-20T08:09:17.677Z,2.95
2019-05-20T08:11:50.285Z,3.00
2019-05-20T08:14:23.313Z,3.10
2019-05-20T08:16:55.947Z,2.98
2019-05-20T08:19:29.027Z,3.27
2019-05-20T08:22:02.922Z,3.00
2019-05-20T08:24:35.855Z,3.00
2019-05-20T08:27:08.895Z,2.60
2019-05-20T08:29:42.261Z,2.65
2019-05-20T08:32:15.492Z,3.10
2019-05-20T08:34:48.228Z,2.70
2019-05-20T08:37:22.316Z,3.00
2019-05-20T08:39:57.218Z,3.35
2019-05-20T08:42:32.332Z,2.62
2019-05-20T08:45:09.438Z,2.30
2019-05-20T08:47:47.063Z,2.50
2019-05-20T08:50:19.199Z,2.98
2019-05-20T08:52:52.646Z,2.42
2019-05-20T08:55:26.897Z,4.20
2019-05-20T08:58:02.108Z,3.62
2019-05-20T09:00:34.439Z,3.37
2019-05-20T09:03:08.359Z,3.87
2019-05-20T09:05:40.411Z,3.52
2019-05-20T09:08:13.618Z,3.58
2019-05-20T09:10:46.472Z,2.83
2019-05-20T09:13:18.363Z,2.80
2019-05-20T09:15:49.919Z,2.90
2019-05-20T09:18:22.603Z,2.80
2019-05-20T09:20:56.146Z,2.80
2019-05-20T09:23:27.601Z,2.40
2019-05-20T09:25:59.155Z,2.85
2019-05-20T09:28:31.882Z,3.85
2019-05-20T09:31:07.977Z,2.70
2019-05-20T09:33:40.830Z,2.35
2019-05-20T09:36:17.607Z,2.75
2019-05-20T09:38:49.126Z,2.67
2019-05-20T09:41:20.879Z,2.77
2019-05-20T09:43:52.507Z,3.15
2019-05-20T09:46:32.669Z,3.15
2019-05-20T09:49:04.236Z,3.12
2019-05-20T09:51:36.239Z,2.72
2019-05-20T09:54:07.904Z,3.10
2019-05-20T09:56:39.349Z,3.52
2019-05-20T09:59:16.884Z,3.10
2019-05-20T10:01:50.401Z,4.45
2019-05-20T10:04:22.217Z,3.55
2019-05-20T10:06:58.378Z,2.65
2019-05-20T10:09:37.328Z,2.50
2019-05-20T10:12:08.963Z,2.60
2019-05-20T10:14:40.524Z,3.05
2019-05-20T10:17:12.155Z,3.15
2019-05-20T10:19:43.654Z,3.08
2019-05-20T10:22:17.660Z,2.67
2019-05-20T10:24:49.267Z,2.77
2019-05-20T10:27:22.243Z,2.83
2019-05-20T10:29:55.022Z,2.60
2019-05-20T10:32:26.569Z,2.67
2019-05-20T10:34:59.611Z,2.77
2019-05-20T10:37:31.214Z,2.95
2019-05-20T10:40:02.710Z,3.62
2019-05-20T10:42:36.691Z,3.58
2019-05-20T10:45:08.864Z,4.10
2019-05-20T10:47:40.498Z,4.55
2019-05-20T10:50:14.776Z,3.02
2019-05-20T10:52:47.359Z,3.12
2019-05-20T10:55:18.893Z,3.00
2019-05-20T10:57:51.238Z,2.90
2019-05-20T11:00:24.602Z,2.72
2019-05-20T11:02:56.247Z,2.85
2019-05-20T11:05:27.925Z,2.85
2019-05-20T11:08:00.348Z,3.27
2019-05-20T11:10:32.973Z,4.05
2019-05-20T11:13:04.472Z,5.37
2019-05-20T11:15:36.103Z,3.60
2019-05-20T11:18:09.585Z,3.08
2019-05-20T11:20:54.536Z,3.25
2019-05-20T11:23:26.400Z,2.45
2019-05-20T11:25:57.889Z,2.70
2019-05-20T11:28:29.532Z,2.55
2019-05-20T11:31:01.255Z,2.30
2019-05-20T11:33:32.695Z,3.25
2019-05-20T11:36:04.216Z,1.98
2019-05-20T11:38:35.896Z,2.70
2019-05-20T11:41:07.970Z,2.50
2019-05-20T11:43:40.186Z,2.50
2019-05-20T11:46:13.655Z,3.00
2019-05-20T11:48:45.176Z,2.42
2019-05-20T11:51:17.010Z,2.33
2019-05-20T11:53:49.907Z,2.58
2019-05-20T11:56:22.657Z,2.22
2019-05-20T11:58:54.399Z,2.90
2019-05-20T12:01:28.177Z,2.90
2019-05-20T12:04:01.158Z,2.33
2019-05-20T12:06:32.900Z,2.65
2019-05-20T12:09:06.405Z,2.70
2019-05-20T12:11:38.223Z,2.50
2019-05-20T12:14:10.888Z,2.40
2019-05-20T12:16:42.463Z,2.42
2019-05-20T12:19:14.295Z,3.02
2019-05-20T12:21:46.030Z,2.72
2019-05-20T12:24:27.482Z,3.00
2019-05-20T12:27:12.302Z,2.15
2019-05-20T12:29:57.768Z,1.85
2019-05-20T12:32:30.504Z,2.30
2019-05-20T12:35:02.236Z,2.58
2019-05-20T12:37:33.923Z,2.62
2019-05-20T12:40:08.301Z,2.58
2019-05-20T12:42:40.405Z,2.10
2019-05-20T12:45:12.011Z,2.20
2019-05-20T12:47:45.619Z,4.03
2019-05-20T12:50:18.047Z,2.90
2019-05-20T12:52:49.632Z,2.45
2019-05-20T12:55:21.465Z,4.12
2019-05-20T12:57:57.573Z,5.97
2019-05-20T13:00:29.114Z,6.83
2019-05-20T13:03:00.905Z,5.37
2019-05-20T13:05:32.395Z,3.55
2019-05-20T13:08:04.245Z,3.40
2019-05-20T13:10:36.073Z,3.10
2019-05-20T13:13:07.574Z,3.22
2019-05-20T13:15:39.261Z,3.60
2019-05-20T13:18:14.945Z,3.33
2019-05-20T13:20:47.636Z,2.87
2019-05-20T13:23:19.140Z,2.20
2019-05-20T13:25:50.641Z,2.50
2019-05-20T13:28:22.285Z,2.50
2019-05-20T13:30:53.960Z,2.52
2019-05-20T13:33:25.388Z,2.80
2019-05-20T13:35:57.945Z,3.60
2019-05-20T13:38:29.568Z,3.58
2019-05-20T13:41:01.268Z,3.20
2019-05-20T13:43:32.866Z,2.40
2019-05-20T13:46:04.424Z,2.00
2019-05-20T13:48:36.112Z,2.33
2019-05-20T13:51:09.895Z,1.95
2019-05-20T13:53:41.458Z,2.22
2019-05-20T13:56:14.985Z,2.12
2019-05-20T13:58:51.926Z,2.22
2019-05-20T14:01:23.560Z,2.67
2019-05-20T14:03:57.395Z,2.05
2019-05-20T14:06:29.221Z,2.50
2019-05-20T14:09:00.687Z,2.30
2019-05-20T14:11:34.861Z,2.00
2019-05-20T14:14:06.752Z,2.20
2019-05-20T14:16:39.378Z,2.15
2019-05-20T14:19:12.036Z,2.62
2019-05-20T14:21:45.750Z,2.00
2019-05-20T14:24:17.304Z,2.00
2019-05-20T14:26:48.730Z,2.08
2019-05-20T14:29:20.253Z,2.30
2019-05-20T14:31:51.859Z,3.92
2019-05-20T14:34:23.361Z,2.80
2019-05-20T14:36:54.840Z,2.60
2019-05-20T14:39:28.509Z,1.95
2019-05-20T14:42:00.161Z,2.20
2019-05-20T14:44:31.754Z,2.12
2019-05-20T14:47:04.577Z,2.22
2019-05-20T14:49:37.404Z,1.90
2019-05-20T14:52:09.922Z,2.30
2019-05-20T14:54:41.550Z,2.30
2019-05-20T14:57:13.442Z,2.10
2019-05-20T14:59:46.286Z,2.83
2019-05-20T15:02:20.083Z,2.00
2019-05-20T15:04:52.081Z,2.00
2019-05-20T15:07:30.950Z,2.40
2019-05-20T15:10:00.597Z,2.02
2019-05-20T15:12:32.500Z,2.40
2019-05-20T15:15:07.478Z,3.35
2019-05-20T15:17:39.423Z,2.12
2019-05-20T15:20:12.515Z,1.95
2019-05-20T15:22:44.057Z,2.10
2019-05-20T15:25:15.714Z,2.20
2019-05-20T15:27:49.798Z,2.10
2019-05-20T15:30:21.804Z,2.20
2019-05-20T15:32:54.858Z,2.35
2019-05-20T15:35:27.669Z,2.42
2019-05-20T15:38:00.284Z,2.37
2019-05-20T15:40:32.162Z,1.95
2019-05-20T15:43:05.949Z,2.85
2019-05-20T15:45:44.528Z,2.05
2019-05-20T15:48:16.181Z,1.95
2019-05-20T15:50:48.711Z,2.40
2019-05-20T15:53:20.419Z,2.40
2019-05-20T15:55:57.620Z,3.00
2019-05-20T15:58:29.307Z,2.60
2019-05-20T16:01:00.803Z,2.45
2019-05-20T16:03:33.607Z,2.62
2019-05-20T16:06:07.216Z,2.42
2019-05-20T16:08:43.523Z,2.25
2019-05-20T16:11:15.024Z,2.83
2019-05-20T16:13:46.497Z,2.30
2019-05-20T16:16:18.023Z,2.52
2019-05-20T16:18:50.491Z,3.10
2019-05-20T16:21:21.897Z,2.62
2019-05-20T16:23:53.346Z,2.87
2019-05-20T16:26:24.947Z,2.70
2019-05-20T16:28:56.842Z,2.42
2019-05-20T16:31:30.616Z,2.60
2019-05-20T16:34:02.219Z,2.22
2019-05-20T16:36:33.971Z,2.37
2019-05-20T16:39:06.800Z,2.50
2019-05-20T16:41:40.715Z,2.17
2019-05-20T16:44:17.662Z,1.98
2019-05-20T16:46:49.466Z,2.30
2019-05-20T16:49:22.054Z,2.08
2019-05-20T16:51:55.916Z,2.37
2019-05-20T16:54:27.500Z,2.00
2019-05-20T16:56:59.255Z,2.45
2019-05-20T16:59:31.732Z,2.40
2019-05-20T17:02:03.328Z,2.67
2019-05-20T17:04:35.179Z,2.50
2019-05-20T17:07:07.667Z,2.20
2019-05-20T17:09:41.239Z,2.00
2019-05-20T17:12:13.175Z,2.45
2019-05-20T17:14:45.022Z,2.40
2019-05-20T17:17:17.982Z,2.30
2019-05-20T17:19:50.857Z,2.37
2019-05-20T17:22:24.610Z,2.60
2019-05-20T17:24:56.712Z,2.62
2019-05-20T17:27:29.003Z,2.12
2019-05-20T17:30:00.664Z,2.40
2019-05-20T17:32:32.166Z,2.58
2019-05-20T17:35:03.811Z,2.80
2019-05-20T17:37:37.165Z,2.62
2019-05-20T17:40:09.556Z,3.22
2019-05-20T17:42:41.494Z,2.80
2019-05-20T17:45:15.875Z,2.62
2019-05-20T17:47:47.775Z,2.60
2019-05-20T17:50:23.294Z,2.85
2019-05-20T17:52:54.825Z,3.27
2019-05-20T17:55:26.715Z,2.50
2019-05-20T17:57:58.357Z,2.50
2019-05-20T18:00:30.089Z,2.40
2019-05-20T18:03:02.532Z,2.80
2019-05-20T18:05:38.593Z,3.00
2019-05-20T18:08:10.408Z,2.60
2019-05-20T18:10:42.161Z,2.02
2019-05-20T18:13:13.689Z,2.42
2019-05-20T18:15:45.432Z,2.20
2019-05-20T18:18:23.622Z,2.22
2019-05-20T18:20:58.143Z,2.42
2019-05-20T18:26:10.954Z,2.35
2019-05-20T18:28:42.490Z,2.50
2019-05-20T18:31:31.176Z,2.30
2019-05-20T18:33:51.428Z,2.70
2019-05-20T18:36:25.025Z,2.30
2019-05-20T18:38:58.482Z,2.17
2019-05-20T18:41:30.553Z,2.55
2019-05-20T18:44:02.171Z,2.47
2019-05-20T18:46:33.615Z,2.72
2019-05-20T18:49:05.316Z,2.83
2019-05-20T18:51:37.783Z,2.70
2019-05-20T18:54:10.957Z,2.70
2019-05-20T18:56:42.450Z,2.22
2019-05-20T18:59:13.914Z,2.42
2019-05-20T19:02:02.366Z,2.42
2019-05-20T19:04:20.595Z,2.35
2019-05-20T19:06:52.070Z,2.40
2019-05-20T19:09:23.638Z,2.40
2019-05-20T19:11:56.042Z,2.50
2019-05-20T19:14:27.610Z,2.60
2019-05-20T19:16:59.390Z,2.33
2019-05-20T19:19:30.826Z,2.30
2019-05-20T19:22:03.582Z,2.37
2019-05-20T19:24:35.960Z,2.25
2019-05-20T19:27:07.845Z,2.60
2019-05-20T19:29:39.354Z,2.30
2019-05-20T19:32:12.102Z,2.72
2019-05-20T19:34:45.191Z,2.92
2019-05-20T19:37:19.685Z,2.12
2019-05-20T19:39:51.127Z,2.50
2019-05-20T19:42:22.470Z,2.80
2019-05-20T19:44:54.869Z,2.40
2019-05-20T19:47:26.291Z,2.30
2019-05-20T19:49:57.727Z,2.35
2019-05-20T19:52:30.861Z,2.75
2019-05-20T19:55:03.787Z,3.12
2019-05-20T19:57:36.186Z,3.05
2019-05-20T20:00:09.845Z,3.05
2019-05-20T20:02:41.251Z,3.25
2019-05-20T20:05:12.941Z,3.05
2019-05-20T20:07:44.481Z,3.00
2019-05-20T20:10:16.147Z,3.37
2019-05-20T20:12:47.792Z,2.77
2019-05-20T20:15:20.125Z,3.02
2019-05-20T20:17:51.712Z,2.45
2019-05-20T20:20:23.107Z,2.62
2019-05-20T20:22:57.809Z,2.42
2019-05-20T20:28:00.764Z,2.45
2019-05-20T20:30:32.420Z,2.50
2019-05-20T20:33:04.882Z,2.67
2019-05-20T20:35:38.473Z,2.90
2019-05-20T20:38:11.164Z,3.17
2019-05-20T20:40:42.640Z,2.55
2019-05-20T20:43:16.061Z,3.00
2019-05-20T20:45:51.029Z,2.83
2019-05-20T20:48:22.590Z,2.75
2019-05-20T20:50:56.118Z,2.45
2019-05-20T20:53:32.178Z,2.40
2019-05-20T20:56:04.076Z,2.55
2019-05-20T20:58:35.860Z,2.60
2019-05-20T21:01:10.093Z,2.85
2019-05-20T21:03:41.768Z,3.08
2019-05-20T21:06:13.271Z,2.65
2019-05-20T21:08:45.798Z,2.98
2019-05-20T21:11:17.232Z,3.08
2019-05-20T21:13:48.781Z,2.95
2019-05-20T21:16:20.335Z,2.92
2019-05-20T21:18:51.742Z,2.47
2019-05-20T21:21:24.287Z,3.00
2019-05-20T21:23:55.746Z,3.10
2019-05-20T21:26:27.187Z,3.42
2019-05-20T21:28:58.728Z,3.37
2019-05-20T21:31:31.691Z,3.65
2019-05-20T21:34:03.185Z,3.45
2019-05-20T21:36:47.260Z,3.40
2019-05-20T21:39:08.303Z,3.80
2019-05-20T21:41:39.850Z,3.20
2019-05-20T21:44:11.314Z,3.65
2019-05-20T21:46:43.705Z,4.50
2019-05-20T21:49:15.231Z,3.40
2019-05-20T21:51:46.699Z,3.70
2019-05-20T21:54:18.128Z,4.05
2019-05-20T21:56:50.205Z,4.28
2019-05-20T21:59:21.876Z,4.80
2019-05-20T22:01:53.386Z,3.75
2019-05-20T22:04:24.801Z,3.90
2019-05-20T22:06:57.195Z,3.62
2019-05-20T22:09:28.584Z,4.05
2019-05-20T22:12:00.131Z,4.00
2019-05-20T22:14:31.678Z,3.60
2019-05-20T22:17:03.224Z,4.00
2019-05-20T22:19:34.706Z,3.77
2019-05-20T22:22:24.978Z,4.30
2019-05-20T22:24:57.332Z,3.83
2019-05-20T22:27:30.057Z,4.55
2019-05-20T22:30:01.592Z,3.75
2019-05-20T22:32:34.220Z,4.00
2019-05-20T22:35:08.110Z,3.92
2019-05-20T22:37:39.606Z,4.08
2019-05-20T22:40:12.413Z,4.17
2019-05-20T22:42:46.062Z,4.22
2019-05-20T22:45:19.613Z,3.80
2019-05-20T22:47:52.171Z,4.17
2019-05-20T22:50:23.700Z,3.95
2019-05-20T22:52:55.263Z,3.90
2019-05-20T22:55:26.805Z,3.83
2019-05-20T22:57:58.319Z,4.30
2019-05-20T23:00:29.874Z,4.45
2019-05-20T23:03:01.454Z,4.20
2019-05-20T23:05:33.060Z,4.22
2019-05-20T23:08:04.622Z,4.00
2019-05-20T23:10:38.179Z,4.17
2019-05-20T23:13:11.052Z,4.05
2019-05-20T23:15:42.974Z,3.92
2019-05-20T23:18:14.373Z,3.65
2019-05-20T23:20:45.829Z,4.05
2019-05-20T23:23:17.331Z,4.42
2019-05-20T23:25:52.831Z,3.47
2019-05-20T23:28:23.230Z,3.45
2019-05-20T23:30:56.151Z,3.47
2019-05-20T23:33:27.514Z,3.80
2019-05-20T23:35:59.067Z,3.55
2019-05-20T23:38:30.480Z,4.42
2019-05-20T23:41:02.006Z,4.22
2019-05-20T23:43:33.459Z,3.77
2019-05-20T23:46:04.906Z,4.00
2019-05-20T23:48:36.409Z,4.30
2019-05-20T23:51:08.029Z,3.70
2019-05-20T23:53:39.497Z,3.95
2019-05-20T23:56:11.980Z,3.90
2019-05-20T23:58:44.330Z,3.77
